sensor_id;sensor_type;location;lat;lon;timestamp;P1;durP1;ratioP1;P2;durP2;ratioP2
78622;SDS011;67943;54.412;9.502;2023-05-21T00:01:16;3.45;;;1.30;;
78622;SDS011;67943;54.412;9.502;2023-05-21T00:06:19;3.47;;;1.50;;
78622;SDS011;67943;54.412;9.502;2023-05-21T00:11:22;3.45;;;1.15;;
78622;SDS011;67943;54.412;9.502;2023-05-21T00:16:23;3.45;;;1.50;;
78622;SDS011;67943;54.412;9.502;2023-05-21T00:21:26;5.35;;;1.70;;
78622;SDS011;67943;54.412;9.502;2023-05-21T00:26:28;5.15;;;1.60;;
78622;SDS011;67943;54.412;9.502;2023-05-21T00:31:30;5.22;;;1.38;;
78622;SDS011;67943;54.412;9.502;2023-05-21T00:36:34;3.17;;;1.20;;
78622;SDS011;67943;54.412;9.502;2023-05-21T00:41:35;3.42;;;1.40;;
78622;SDS011;67943;54.412;9.502;2023-05-21T00:46:39;4.80;;;1.50;;
78622;SDS011;67943;54.412;9.502;2023-05-21T00:51:42;2.33;;;1.13;;
78622;SDS011;67943;54.412;9.502;2023-05-21T00:56:45;3.90;;;1.65;;
78622;SDS011;67943;54.412;9.502;2023-05-21T01:01:47;5.07;;;1.60;;
78622;SDS011;67943;54.412;9.502;2023-05-21T01:06:54;2.78;;;1.25;;
78622;SDS011;67943;54.412;9.502;2023-05-21T01:11:57;6.53;;;1.60;;
78622;SDS011;67943;54.412;9.502;2023-05-21T01:17:00;3.53;;;1.30;;
78622;SDS011;67943;54.412;9.502;2023-05-21T01:22:04;6.38;;;1.20;;
78622;SDS011;67943;54.412;9.502;2023-05-21T01:27:08;3.28;;;1.50;;
78622;SDS011;67943;54.412;9.502;2023-05-21T01:32:10;4.43;;;1.48;;
78622;SDS011;67943;54.412;9.502;2023-05-21T01:37:20;4.85;;;1.27;;
78622;SDS011;67943;54.412;9.502;2023-05-21T01:42:27;4.18;;;1.40;;
78622;SDS011;67943;54.412;9.502;2023-05-21T01:47:30;3.90;;;1.40;;
78622;SDS011;67943;54.412;9.502;2023-05-21T01:52:33;5.57;;;1.40;;
78622;SDS011;67943;54.412;9.502;2023-05-21T01:57:36;6.85;;;1.77;;
78622;SDS011;67943;54.412;9.502;2023-05-21T02:02:37;4.22;;;1.63;;
78622;SDS011;67943;54.412;9.502;2023-05-21T02:07:39;3.80;;;1.85;;
78622;SDS011;67943;54.412;9.502;2023-05-21T02:12:42;6.28;;;1.65;;
78622;SDS011;67943;54.412;9.502;2023-05-21T02:17:43;4.72;;;1.73;;
78622;SDS011;67943;54.412;9.502;2023-05-21T02:22:45;4.35;;;1.55;;
78622;SDS011;67943;54.412;9.502;2023-05-21T02:27:49;4.55;;;1.60;;
78622;SDS011;67943;54.412;9.502;2023-05-21T02:32:53;3.13;;;1.50;;
78622;SDS011;67943;54.412;9.502;2023-05-21T02:37:57;5.60;;;1.60;;
78622;SDS011;67943;54.412;9.502;2023-05-21T02:43:03;4.22;;;1.55;;
78622;SDS011;67943;54.412;9.502;2023-05-21T02:48:05;6.43;;;1.52;;
78622;SDS011;67943;54.412;9.502;2023-05-21T02:53:06;2.70;;;1.40;;
78622;SDS011;67943;54.412;9.502;2023-05-21T02:58:09;5.45;;;1.90;;
78622;SDS011;67943;54.412;9.502;2023-05-21T03:03:12;4.22;;;1.60;;
78622;SDS011;67943;54.412;9.502;2023-05-21T03:08:14;5.07;;;1.75;;
78622;SDS011;67943;54.412;9.502;2023-05-21T03:13:17;4.35;;;1.70;;
78622;SDS011;67943;54.412;9.502;2023-05-21T03:18:19;6.50;;;1.50;;
78622;SDS011;67943;54.412;9.502;2023-05-21T03:23:20;5.63;;;1.85;;
78622;SDS011;67943;54.412;9.502;2023-05-21T03:28:23;4.90;;;1.80;;
78622;SDS011;67943;54.412;9.502;2023-05-21T03:33:24;4.15;;;1.92;;
78622;SDS011;67943;54.412;9.502;2023-05-21T03:38:26;9.95;;;1.85;;
78622;SDS011;67943;54.412;9.502;2023-05-21T03:43:29;7.65;;;2.00;;
78622;SDS011;67943;54.412;9.502;2023-05-21T03:48:30;4.00;;;1.70;;
78622;SDS011;67943;54.412;9.502;2023-05-21T03:53:32;6.45;;;1.70;;
78622;SDS011;67943;54.412;9.502;2023-05-21T03:58:35;6.57;;;2.33;;
78622;SDS011;67943;54.412;9.502;2023-05-21T04:03:37;6.90;;;2.17;;
78622;SDS011;67943;54.412;9.502;2023-05-21T04:08:38;5.47;;;1.80;;
78622;SDS011;67943;54.412;9.502;2023-05-21T04:13:41;4.95;;;1.95;;
78622;SDS011;67943;54.412;9.502;2023-05-21T04:18:43;5.90;;;2.15;;
78622;SDS011;67943;54.412;9.502;2023-05-21T04:23:44;6.25;;;2.30;;
78622;SDS011;67943;54.412;9.502;2023-05-21T04:28:47;6.68;;;2.10;;
78622;SDS011;67943;54.412;9.502;2023-05-21T04:33:49;6.47;;;2.55;;
78622;SDS011;67943;54.412;9.502;2023-05-21T04:38:51;6.28;;;2.67;;
78622;SDS011;67943;54.412;9.502;2023-05-21T04:43:53;9.88;;;2.70;;
78622;SDS011;67943;54.412;9.502;2023-05-21T04:48:55;7.43;;;2.35;;
78622;SDS011;67943;54.412;9.502;2023-05-21T04:54:01;5.55;;;2.30;;
78622;SDS011;67943;54.412;9.502;2023-05-21T04:59:04;7.00;;;3.13;;
78622;SDS011;67943;54.412;9.502;2023-05-21T05:04:06;7.80;;;2.58;;
78622;SDS011;67943;54.412;9.502;2023-05-21T05:09:07;5.70;;;2.80;;
78622;SDS011;67943;54.412;9.502;2023-05-21T05:14:10;7.32;;;2.70;;
78622;SDS011;67943;54.412;9.502;2023-05-21T05:19:11;5.75;;;2.70;;
78622;SDS011;67943;54.412;9.502;2023-05-21T05:24:13;6.22;;;2.97;;
78622;SDS011;67943;54.412;9.502;2023-05-21T05:29:16;5.93;;;2.65;;
78622;SDS011;67943;54.412;9.502;2023-05-21T05:34:18;6.88;;;2.78;;
78622;SDS011;67943;54.412;9.502;2023-05-21T05:39:19;6.43;;;2.72;;
78622;SDS011;67943;54.412;9.502;2023-05-21T05:44:22;7.75;;;2.83;;
78622;SDS011;67943;54.412;9.502;2023-05-21T05:49:23;7.10;;;2.88;;
78622;SDS011;67943;54.412;9.502;2023-05-21T05:54:25;6.05;;;2.90;;
78622;SDS011;67943;54.412;9.502;2023-05-21T05:59:28;6.65;;;2.83;;
78622;SDS011;67943;54.412;9.502;2023-05-21T06:04:29;8.98;;;3.05;;
78622;SDS011;67943;54.412;9.502;2023-05-21T06:09:31;8.40;;;3.10;;
78622;SDS011;67943;54.412;9.502;2023-05-21T06:14:34;7.10;;;2.80;;
78622;SDS011;67943;54.412;9.502;2023-05-21T06:19:35;7.82;;;3.20;;
78622;SDS011;67943;54.412;9.502;2023-05-21T06:24:37;9.82;;;3.20;;
78622;SDS011;67943;54.412;9.502;2023-05-21T06:29:40;9.45;;;3.30;;
78622;SDS011;67943;54.412;9.502;2023-05-21T06:34:41;7.78;;;3.40;;
78622;SDS011;67943;54.412;9.502;2023-05-21T06:39:43;8.32;;;3.50;;
78622;SDS011;67943;54.412;9.502;2023-05-21T06:44:45;12.55;;;3.78;;
78622;SDS011;67943;54.412;9.502;2023-05-21T06:49:47;4.88;;;2.70;;
78622;SDS011;67943;54.412;9.502;2023-05-21T06:54:48;9.25;;;3.60;;
78622;SDS011;67943;54.412;9.502;2023-05-21T06:59:51;6.75;;;2.85;;
78622;SDS011;67943;54.412;9.502;2023-05-21T07:04:53;4.45;;;2.70;;
78622;SDS011;67943;54.412;9.502;2023-05-21T07:09:54;9.52;;;3.03;;
78622;SDS011;67943;54.412;9.502;2023-05-21T07:14:58;10.68;;;3.35;;
78622;SDS011;67943;54.412;9.502;2023-05-21T07:20:00;7.50;;;3.10;;
78622;SDS011;67943;54.412;9.502;2023-05-21T07:25:01;8.75;;;3.45;;
78622;SDS011;67943;54.412;9.502;2023-05-21T07:30:05;7.28;;;3.40;;
78622;SDS011;67943;54.412;9.502;2023-05-21T07:35:09;7.65;;;3.53;;
78622;SDS011;67943;54.412;9.502;2023-05-21T07:40:11;7.97;;;3.35;;
78622;SDS011;67943;54.412;9.502;2023-05-21T07:45:14;6.15;;;3.30;;
78622;SDS011;67943;54.412;9.502;2023-05-21T07:50:16;10.43;;;4.07;;
78622;SDS011;67943;54.412;9.502;2023-05-21T07:55:18;9.55;;;4.18;;
78622;SDS011;67943;54.412;9.502;2023-05-21T08:00:22;11.35;;;4.22;;
78622;SDS011;67943;54.412;9.502;2023-05-21T08:05:24;8.70;;;3.80;;
78622;SDS011;67943;54.412;9.502;2023-05-21T08:10:25;6.10;;;3.92;;
78622;SDS011;67943;54.412;9.502;2023-05-21T08:15:28;9.07;;;3.47;;
78622;SDS011;67943;54.412;9.502;2023-05-21T08:20:30;6.43;;;4.30;;
78622;SDS011;67943;54.412;9.502;2023-05-21T08:25:32;9.77;;;4.45;;
78622;SDS011;67943;54.412;9.502;2023-05-21T08:30:35;9.80;;;4.93;;
78622;SDS011;67943;54.412;9.502;2023-05-21T08:35:36;8.30;;;4.22;;
78622;SDS011;67943;54.412;9.502;2023-05-21T08:40:38;10.23;;;4.43;;
78622;SDS011;67943;54.412;9.502;2023-05-21T08:45:43;9.63;;;4.95;;
78622;SDS011;67943;54.412;9.502;2023-05-21T08:50:48;7.90;;;4.22;;
78622;SDS011;67943;54.412;9.502;2023-05-21T08:55:51;11.40;;;5.22;;
78622;SDS011;67943;54.412;9.502;2023-05-21T09:00:56;10.65;;;4.70;;
78622;SDS011;67943;54.412;9.502;2023-05-21T09:05:57;9.80;;;5.18;;
78622;SDS011;67943;54.412;9.502;2023-05-21T09:11:00;8.57;;;4.88;;
78622;SDS011;67943;54.412;9.502;2023-05-21T09:16:03;10.27;;;4.90;;
78622;SDS011;67943;54.412;9.502;2023-05-21T09:21:21;9.27;;;4.78;;
78622;SDS011;67943;54.412;9.502;2023-05-21T09:26:24;9.85;;;4.38;;
78622;SDS011;67943;54.412;9.502;2023-05-21T09:31:27;10.38;;;4.68;;
78622;SDS011;67943;54.412;9.502;2023-05-21T09:36:29;7.47;;;4.78;;
78622;SDS011;67943;54.412;9.502;2023-05-21T09:41:32;8.73;;;5.65;;
78622;SDS011;67943;54.412;9.502;2023-05-21T09:46:39;8.55;;;4.82;;
78622;SDS011;67943;54.412;9.502;2023-05-21T09:51:42;8.73;;;4.95;;
78622;SDS011;67943;54.412;9.502;2023-05-21T09:56:44;10.70;;;4.97;;
78622;SDS011;67943;54.412;9.502;2023-05-21T10:01:47;8.50;;;5.53;;
78622;SDS011;67943;54.412;9.502;2023-05-21T10:06:50;9.65;;;4.90;;
78622;SDS011;67943;54.412;9.502;2023-05-21T10:11:52;13.02;;;5.35;;
78622;SDS011;67943;54.412;9.502;2023-05-21T10:16:56;7.63;;;4.68;;
78622;SDS011;67943;54.412;9.502;2023-05-21T10:21:58;8.20;;;4.85;;
78622;SDS011;67943;54.412;9.502;2023-05-21T10:27:00;9.30;;;4.38;;
78622;SDS011;67943;54.412;9.502;2023-05-21T10:32:04;9.32;;;5.47;;
78622;SDS011;67943;54.412;9.502;2023-05-21T10:37:07;8.18;;;5.05;;
78622;SDS011;67943;54.412;9.502;2023-05-21T10:42:19;10.13;;;5.40;;
78622;SDS011;67943;54.412;9.502;2023-05-21T10:53:02;7.32;;;4.88;;
78622;SDS011;67943;54.412;9.502;2023-05-21T10:58:30;7.50;;;4.40;;
78622;SDS011;67943;54.412;9.502;2023-05-21T11:03:47;10.02;;;5.03;;
78622;SDS011;67943;54.412;9.502;2023-05-21T11:08:49;10.05;;;5.20;;
78622;SDS011;67943;54.412;9.502;2023-05-21T11:13:52;9.10;;;4.53;;
78622;SDS011;67943;54.412;9.502;2023-05-21T11:19:01;8.98;;;4.82;;
78622;SDS011;67943;54.412;9.502;2023-05-21T11:24:06;7.55;;;4.32;;
78622;SDS011;67943;54.412;9.502;2023-05-21T11:29:10;9.30;;;4.90;;
78622;SDS011;67943;54.412;9.502;2023-05-21T11:34:13;11.35;;;5.45;;
78622;SDS011;67943;54.412;9.502;2023-05-21T11:39:15;10.23;;;5.05;;
78622;SDS011;67943;54.412;9.502;2023-05-21T11:44:33;7.30;;;5.32;;
78622;SDS011;67943;54.412;9.502;2023-05-21T11:49:40;10.25;;;5.30;;
78622;SDS011;67943;54.412;9.502;2023-05-21T11:54:43;9.98;;;6.43;;
78622;SDS011;67943;54.412;9.502;2023-05-21T11:59:47;9.27;;;6.03;;
78622;SDS011;67943;54.412;9.502;2023-05-21T12:04:51;9.80;;;5.55;;
78622;SDS011;67943;54.412;9.502;2023-05-21T12:09:53;9.20;;;5.07;;
78622;SDS011;67943;54.412;9.502;2023-05-21T12:14:54;13.57;;;5.68;;
78622;SDS011;67943;54.412;9.502;2023-05-21T12:19:57;10.75;;;5.75;;
78622;SDS011;67943;54.412;9.502;2023-05-21T12:25:00;7.93;;;5.60;;
78622;SDS011;67943;54.412;9.502;2023-05-21T12:30:05;9.57;;;5.50;;
78622;SDS011;67943;54.412;9.502;2023-05-21T12:35:08;7.95;;;5.63;;
78622;SDS011;67943;54.412;9.502;2023-05-21T12:40:20;8.68;;;5.80;;
78622;SDS011;67943;54.412;9.502;2023-05-21T12:45:22;10.60;;;6.05;;
78622;SDS011;67943;54.412;9.502;2023-05-21T12:50:25;10.85;;;5.50;;
78622;SDS011;67943;54.412;9.502;2023-05-21T12:55:26;10.77;;;6.22;;
78622;SDS011;67943;54.412;9.502;2023-05-21T13:00:29;9.73;;;5.70;;
78622;SDS011;67943;54.412;9.502;2023-05-21T13:05:33;11.30;;;7.00;;
78622;SDS011;67943;54.412;9.502;2023-05-21T13:10:34;10.93;;;7.20;;
78622;SDS011;67943;54.412;9.502;2023-05-21T13:15:36;10.48;;;7.25;;
78622;SDS011;67943;54.412;9.502;2023-05-21T13:20:39;12.25;;;7.47;;
78622;SDS011;67943;54.412;9.502;2023-05-21T13:25:40;11.13;;;6.93;;
78622;SDS011;67943;54.412;9.502;2023-05-21T13:30:42;12.27;;;7.10;;
78622;SDS011;67943;54.412;9.502;2023-05-21T13:35:44;12.13;;;7.88;;
78622;SDS011;67943;54.412;9.502;2023-05-21T13:40:50;11.30;;;7.40;;
78622;SDS011;67943;54.412;9.502;2023-05-21T13:45:51;9.63;;;6.90;;
78622;SDS011;67943;54.412;9.502;2023-05-21T13:50:54;10.80;;;7.00;;
78622;SDS011;67943;54.412;9.502;2023-05-21T13:55:56;11.30;;;6.60;;
78622;SDS011;67943;54.412;9.502;2023-05-21T14:00:57;10.63;;;6.82;;
78622;SDS011;67943;54.412;9.502;2023-05-21T14:06:00;10.65;;;7.13;;
78622;SDS011;67943;54.412;9.502;2023-05-21T14:11:01;15.50;;;7.55;;
78622;SDS011;67943;54.412;9.502;2023-05-21T14:16:03;10.40;;;6.85;;
78622;SDS011;67943;54.412;9.502;2023-05-21T14:21:06;12.55;;;6.72;;
78622;SDS011;67943;54.412;9.502;2023-05-21T14:26:08;11.57;;;7.03;;
78622;SDS011;67943;54.412;9.502;2023-05-21T14:31:10;9.65;;;6.60;;
78622;SDS011;67943;54.412;9.502;2023-05-21T14:36:13;9.73;;;6.53;;
78622;SDS011;67943;54.412;9.502;2023-05-21T14:41:15;11.40;;;7.85;;
78622;SDS011;67943;54.412;9.502;2023-05-21T14:46:16;11.18;;;8.35;;
78622;SDS011;67943;54.412;9.502;2023-05-21T14:51:20;11.95;;;7.80;;
78622;SDS011;67943;54.412;9.502;2023-05-21T14:56:21;11.23;;;8.32;;
78622;SDS011;67943;54.412;9.502;2023-05-21T15:01:25;12.63;;;8.15;;
78622;SDS011;67943;54.412;9.502;2023-05-21T15:06:28;10.68;;;7.72;;
78622;SDS011;67943;54.412;9.502;2023-05-21T15:11:29;12.55;;;8.35;;
78622;SDS011;67943;54.412;9.502;2023-05-21T15:16:32;13.07;;;8.77;;
78622;SDS011;67943;54.412;9.502;2023-05-21T15:21:35;11.27;;;7.78;;
78622;SDS011;67943;54.412;9.502;2023-05-21T15:26:37;12.55;;;8.75;;
78622;SDS011;67943;54.412;9.502;2023-05-21T15:31:39;13.45;;;9.27;;
78622;SDS011;67943;54.412;9.502;2023-05-21T15:36:41;13.45;;;9.68;;
78622;SDS011;67943;54.412;9.502;2023-05-21T15:41:43;10.45;;;8.13;;
78622;SDS011;67943;54.412;9.502;2023-05-21T15:46:44;13.25;;;9.23;;
78622;SDS011;67943;54.412;9.502;2023-05-21T15:51:50;13.30;;;8.75;;
78622;SDS011;67943;54.412;9.502;2023-05-21T15:56:51;12.80;;;9.73;;
78622;SDS011;67943;54.412;9.502;2023-05-21T16:01:53;13.40;;;9.27;;
78622;SDS011;67943;54.412;9.502;2023-05-21T16:06:57;12.98;;;8.88;;
78622;SDS011;67943;54.412;9.502;2023-05-21T16:11:59;15.68;;;9.07;;
78622;SDS011;67943;54.412;9.502;2023-05-21T16:17:00;13.48;;;8.93;;
78622;SDS011;67943;54.412;9.502;2023-05-21T16:22:03;12.65;;;9.63;;
78622;SDS011;67943;54.412;9.502;2023-05-21T16:27:05;13.70;;;9.35;;
78622;SDS011;67943;54.412;9.502;2023-05-21T16:32:06;12.20;;;8.82;;
78622;SDS011;67943;54.412;9.502;2023-05-21T16:37:09;11.40;;;8.43;;
78622;SDS011;67943;54.412;9.502;2023-05-21T16:42:11;13.82;;;8.15;;
78622;SDS011;67943;54.412;9.502;2023-05-21T16:47:12;14.95;;;9.15;;
78622;SDS011;67943;54.412;9.502;2023-05-21T16:52:15;11.23;;;8.10;;
78622;SDS011;67943;54.412;9.502;2023-05-21T16:57:17;13.75;;;8.05;;
78622;SDS011;67943;54.412;9.502;2023-05-21T17:02:18;16.35;;;8.40;;
78622;SDS011;67943;54.412;9.502;2023-05-21T17:07:21;13.48;;;7.90;;
78622;SDS011;67943;54.412;9.502;2023-05-21T17:12:22;11.15;;;8.00;;
78622;SDS011;67943;54.412;9.502;2023-05-21T17:17:25;11.77;;;8.65;;
78622;SDS011;67943;54.412;9.502;2023-05-21T17:22:28;11.23;;;7.60;;
78622;SDS011;67943;54.412;9.502;2023-05-21T17:27:29;12.27;;;7.40;;
78622;SDS011;67943;54.412;9.502;2023-05-21T17:32:31;11.52;;;7.97;;
78622;SDS011;67943;54.412;9.502;2023-05-21T17:37:34;9.98;;;7.43;;
78622;SDS011;67943;54.412;9.502;2023-05-21T17:42:35;11.80;;;7.90;;
78622;SDS011;67943;54.412;9.502;2023-05-21T17:47:37;10.10;;;7.70;;
78622;SDS011;67943;54.412;9.502;2023-05-21T17:52:40;11.95;;;7.72;;
78622;SDS011;67943;54.412;9.502;2023-05-21T17:57:41;17.42;;;9.13;;
78622;SDS011;67943;54.412;9.502;2023-05-21T18:02:42;11.88;;;8.25;;
78622;SDS011;67943;54.412;9.502;2023-05-21T18:07:45;13.07;;;9.27;;
78622;SDS011;67943;54.412;9.502;2023-05-21T18:12:47;11.63;;;7.80;;
78622;SDS011;67943;54.412;9.502;2023-05-21T18:17:48;12.57;;;8.65;;
78622;SDS011;67943;54.412;9.502;2023-05-21T18:22:51;13.45;;;8.68;;
78622;SDS011;67943;54.412;9.502;2023-05-21T18:27:53;12.02;;;8.77;;
78622;SDS011;67943;54.412;9.502;2023-05-21T18:32:54;11.45;;;8.90;;
78622;SDS011;67943;54.412;9.502;2023-05-21T18:37:57;13.02;;;8.73;;
78622;SDS011;67943;54.412;9.502;2023-05-21T18:42:59;12.25;;;8.95;;
78622;SDS011;67943;54.412;9.502;2023-05-21T18:48:02;11.73;;;8.50;;
78622;SDS011;67943;54.412;9.502;2023-05-21T18:53:05;13.35;;;9.05;;
78622;SDS011;67943;54.412;9.502;2023-05-21T18:58:07;12.65;;;9.00;;
78622;SDS011;67943;54.412;9.502;2023-05-21T19:03:08;12.38;;;9.30;;
78622;SDS011;67943;54.412;9.502;2023-05-21T19:08:11;13.05;;;8.55;;
78622;SDS011;67943;54.412;9.502;2023-05-21T19:13:13;12.27;;;9.30;;
78622;SDS011;67943;54.412;9.502;2023-05-21T19:18:14;14.43;;;9.32;;
78622;SDS011;67943;54.412;9.502;2023-05-21T19:23:18;12.40;;;9.15;;
78622;SDS011;67943;54.412;9.502;2023-05-21T19:28:19;14.13;;;9.18;;
78622;SDS011;67943;54.412;9.502;2023-05-21T19:33:21;16.85;;;10.32;;
78622;SDS011;67943;54.412;9.502;2023-05-21T19:38:24;12.23;;;8.75;;
78622;SDS011;67943;54.412;9.502;2023-05-21T19:43:25;16.92;;;10.05;;
78622;SDS011;67943;54.412;9.502;2023-05-21T19:48:26;14.10;;;9.55;;
78622;SDS011;67943;54.412;9.502;2023-05-21T19:53:29;12.30;;;9.63;;
78622;SDS011;67943;54.412;9.502;2023-05-21T19:58:31;14.20;;;10.13;;
78622;SDS011;67943;54.412;9.502;2023-05-21T20:03:32;13.52;;;10.25;;
78622;SDS011;67943;54.412;9.502;2023-05-21T20:08:37;17.70;;;11.35;;
78622;SDS011;67943;54.412;9.502;2023-05-21T20:13:39;22.17;;;11.15;;
78622;SDS011;67943;54.412;9.502;2023-05-21T20:18:40;13.48;;;9.85;;
78622;SDS011;67943;54.412;9.502;2023-05-21T20:23:47;16.17;;;10.55;;
78622;SDS011;67943;54.412;9.502;2023-05-21T20:28:49;18.13;;;10.95;;
78622;SDS011;67943;54.412;9.502;2023-05-21T20:33:50;15.38;;;10.70;;
78622;SDS011;67943;54.412;9.502;2023-05-21T20:38:54;15.45;;;10.85;;
78622;SDS011;67943;54.412;9.502;2023-05-21T20:43:56;15.68;;;10.90;;
78622;SDS011;67943;54.412;9.502;2023-05-21T20:48:58;14.18;;;10.75;;
78622;SDS011;67943;54.412;9.502;2023-05-21T20:54:01;14.75;;;10.70;;
78622;SDS011;67943;54.412;9.502;2023-05-21T20:59:02;15.25;;;10.15;;
78622;SDS011;67943;54.412;9.502;2023-05-21T21:04:04;15.63;;;11.45;;
78622;SDS011;67943;54.412;9.502;2023-05-21T21:09:07;19.83;;;11.70;;
78622;SDS011;67943;54.412;9.502;2023-05-21T21:14:08;24.35;;;12.57;;
78622;SDS011;67943;54.412;9.502;2023-05-21T21:19:10;15.85;;;11.32;;
78622;SDS011;67943;54.412;9.502;2023-05-21T21:24:13;19.20;;;12.75;;
78622;SDS011;67943;54.412;9.502;2023-05-21T21:29:14;15.70;;;11.20;;
78622;SDS011;67943;54.412;9.502;2023-05-21T21:34:16;19.98;;;12.25;;
78622;SDS011;67943;54.412;9.502;2023-05-21T21:39:18;17.35;;;12.82;;
78622;SDS011;67943;54.412;9.502;2023-05-21T21:44:20;17.83;;;12.45;;
78622;SDS011;67943;54.412;9.502;2023-05-21T21:49:21;17.70;;;12.30;;
78622;SDS011;67943;54.412;9.502;2023-05-21T21:54:24;20.45;;;13.27;;
78622;SDS011;67943;54.412;9.502;2023-05-21T21:59:26;22.83;;;13.45;;
78622;SDS011;67943;54.412;9.502;2023-05-21T22:04:28;17.08;;;13.05;;
78622;SDS011;67943;54.412;9.502;2023-05-21T22:09:31;20.90;;;14.10;;
78622;SDS011;67943;54.412;9.502;2023-05-21T22:14:32;21.15;;;14.45;;
78622;SDS011;67943;54.412;9.502;2023-05-21T22:19:34;19.52;;;13.95;;
78622;SDS011;67943;54.412;9.502;2023-05-21T22:24:36;19.83;;;14.75;;
78622;SDS011;67943;54.412;9.502;2023-05-21T22:29:38;24.08;;;15.65;;
78622;SDS011;67943;54.412;9.502;2023-05-21T22:34:39;22.90;;;13.82;;
78622;SDS011;67943;54.412;9.502;2023-05-21T22:39:43;24.45;;;14.75;;
78622;SDS011;67943;54.412;9.502;2023-05-21T22:44:45;28.20;;;17.10;;
78622;SDS011;67943;54.412;9.502;2023-05-21T22:49:46;23.95;;;15.85;;
78622;SDS011;67943;54.412;9.502;2023-05-21T22:54:49;25.73;;;14.98;;
78622;SDS011;67943;54.412;9.502;2023-05-21T22:59:51;24.88;;;15.13;;
78622;SDS011;67943;54.412;9.502;2023-05-21T23:04:53;27.35;;;16.27;;
78622;SDS011;67943;54.412;9.502;2023-05-21T23:09:55;25.98;;;16.13;;
78622;SDS011;67943;54.412;9.502;2023-05-21T23:14:57;24.67;;;15.63;;
78622;SDS011;67943;54.412;9.502;2023-05-21T23:19:58;23.08;;;15.18;;
78622;SDS011;67943;54.412;9.502;2023-05-21T23:25:01;28.40;;;17.25;;
78622;SDS011;67943;54.412;9.502;2023-05-21T23:30:03;25.55;;;15.60;;
78622;SDS011;67943;54.412;9.502;2023-05-21T23:35:05;23.95;;;16.02;;
78622;SDS011;67943;54.412;9.502;2023-05-21T23:40:10;23.58;;;15.52;;
78622;SDS011;67943;54.412;9.502;2023-05-21T23:45:12;24.13;;;13.90;;
78622;SDS011;67943;54.412;9.502;2023-05-21T23:50:14;21.90;;;14.15;;
78622;SDS011;67943;54.412;9.502;2023-05-21T23:55:16;20.00;;;13.15;;
